x

Northwestern Hawaii Two - 190nm Nw Of Kauai Is, Hi (51101) Wave Buoy

2:50pm - Fri 4th Sep 2015 All times are HST. -10 hours from GMT.

  • Sig Wave height 8.5ft
  • Swell Direction
  • Peak Period 15s
  • Average Period 9s
  • Wind
    7mph, 9mph gusts
  • Sea Temp 84°f
  • Air Temp 82°f
  • Sea Pressure 1009.7mb
  • Northwestern Hawaii Two - 190nm Nw Of Kauai Is, Hi
  • Northwestern Hawaii Two - 190nm Nw Of Kauai Is, Hi

More Historic Weather Station data

Upgrade to MSW Pro to gain access to the past 30 days of data for over 8000 Wavebouys and Weather Stations around the globe.

Join Pro

Comparision Forecast

View Surf forecast
   
Fri 09/04 2:50pm 8.5ft 15s 9s 7 9 mph 1009.7mb 84f 82f
1:50pm 8.5ft 15s 9s 4 7 mph 1010mb 83f 81f
12:50pm 9ft 15s 9s 11 16 mph 1010.8mb 83f 78f
11:50am 9ft 15s 9s 7 9 mph 1011mb 83f 81f
10:50am 9.5ft 15s 9s 7 9 mph 1011.5mb 83f 81f
9:50am 8.5ft 15s 9s 7 9 mph 1011.6mb 83f 81f
8:50am 9ft 10s 9s 7 9 mph 1011.4mb 83f 81f
7:50am 9ft 11s 9s 4 7 mph 1011.2mb 83f 81f
6:50am 9.5ft 10s 9s 4 7 mph 1010.5mb 83f 81f
5:50am 9ft 9s 9s 2 4 mph 1010.1mb 83f 81f
4:50am 8.5ft 14s 9s  -  2 mph 1009.7mb 83f 80f
3:50am 9ft 13s 9s 2 4 mph 1009.8mb 83f 81f
2:50am 8ft 10s 9s 2 4 mph 1010.3mb 83f 81f
1:50am 8.5ft 10s 9s 2 4 mph 1010.5mb 83f 81f
12:50am 9ft 9s 10s 2 4 mph 1011mb 83f 81f
Thu 09/03 11:50pm 8ft 13s 10s 2 4 mph 1011.4mb 83f 81f
10:50pm 8.5ft 15s 10s 2 7 mph 1011.7mb 83f 81f
9:50pm 9ft 11s 10s 4 7 mph 1011.7mb 83f 81f
8:50pm 8ft 14s 9s 7 9 mph 1011.3mb 83f 81f
7:50pm 8ft 10s 9s 4 7 mph 1010.6mb 83f 81f
6:50pm 8ft 13s 9s 4 7 mph 1010mb 83f 82f
5:50pm 8ft 13s 9s 4 9 mph 1009.4mb 83f 82f
4:50pm 8ft 13s 9s 7 11 mph 1009.2mb 83f 82f
3:50pm 9ft 15s 10s 9
mph
1009.2mb 83f 82f
2:50pm 8.5ft 15s 9s 9 11 mph 1009.8mb 83f 82f
1:50pm 9ft 10s 9s 11 13 mph 1010.1mb 83f 81f
12:50pm 9ft 14s 8s 9 13 mph 1010.4mb 83f 81f
11:50am 9ft 14s 9s 11 13 mph 1010.9mb 83f 82f
10:50am 9ft 15s 9s 13 16 mph 1011.1mb 83f 82f
9:50am 10ft 15s 9s 13 18 mph 1010.9mb 83f 81f
8:50am 11ft 11s 9s 13 18 mph 1010.6mb 83f 81f
7:50am 10.5ft 11s 9s 13 18 mph 1010mb 83f 81f
6:50am 10.5ft 10s 9s 13 18 mph 1009.6mb 83f 81f
5:50am 11.5ft 16s 9s 11 18 mph 1009.4mb 83f 81f
4:50am 10.5ft 11s 9s 16 20 mph 1009.1mb 83f 80f
3:50am 10ft 11s 9s 18 25 mph 1008.7mb 83f 80f
2:50am 10.5ft 16s 9s 11 16 mph 1008.9mb 83f 81f
1:50am 10ft 11s 9s 11 16 mph 1009mb 83f 81f
12:50am 12ft 11s 9s 11 13 mph 1009.5mb 83f 81f
Wed 09/02 11:50pm 10ft 16s 9s 13 18 mph 1009.6mb 83f 81f
10:50pm 10.5ft 11s 8s 13 18 mph 1009.6mb 83f 81f
9:50pm 10.5ft 11s 8s 13 18 mph 1009.3mb 83f 81f
8:50pm 11ft 12s 8s 13 16 mph 1009mb 83f 81f
7:50pm 11.5ft 11s 8s 13 16 mph 1008.7mb 83f 81f
6:50pm 11ft 13s 8s 13 18 mph 1008.3mb 83f 82f
5:50pm 12ft 12s 9s 16 20 mph 1008.1mb 83f 82f
4:50pm 12ft 13s 9s 16 20 mph 1008mb 83f 82f
3:50pm 11.5ft 14s 9s 16 20 mph 1008.3mb 83f 81f
2:50pm 10.5ft 13s 8s 18 22 mph 1008.5mb 83f 82f
1:50pm 10.5ft 10s 8s 16 20 mph 1009.2mb 83f 82f
12:50pm 11ft 12s 8s 18 22 mph 1009.7mb 82f 82f
11:50am 11ft 12s 8s 18 20 mph 1010.2mb 82f 82f
10:50am 12ft 13s 8s 18 20 mph 1010.5mb 82f 82f
9:50am 11.5ft 11s 8s 18 20 mph 1010.7mb 82f 81f
8:50am 12ft 11s 8s 20 25 mph 1010.5mb 82f 81f
7:50am 12ft 13s 8s 20 22 mph 1010.5mb 82f 81f
6:50am 10ft 14s 7s 18 22 mph 1010.2mb 82f 81f
5:50am 10ft 14s 8s 20 22 mph 1010.3mb 82f 81f
4:50am 8.5ft 14s 7s 16 20 mph 1010.4mb 82f 81f
3:50am 8ft 10s 7s 18 20 mph 1010.6mb 82f 81f
2:50am 8ft 14s 7s 18 22 mph 1011mb 82f 81f
1:50am 9ft 11s 7s 18 22 mph 1011.7mb 82f 81f
12:50am 8ft 9s 7s 18 20 mph 1012.3mb 82f 81f
Tue 09/01 11:50pm 8ft 11s 7s 18 20 mph 1012.8mb 82f 81f
10:50pm 9.5ft 14s 8s 16 20 mph 1013mb 82f 81f
9:50pm 10ft 13s 8s 18 20 mph 1013.1mb 82f 81f
8:50pm 9ft 14s 7s 16 20 mph 1012.9mb 82f 82f
7:50pm 8.5ft 11s 7s 16 20 mph 1012.5mb 82f 82f
6:50pm 9ft 12s 8s 16 20 mph 1012.2mb 82f 82f
5:50pm 8ft 10s 7s 16 20 mph 1011.7mb 82f 82f
4:50pm 8ft 12s 8s 16 18 mph 1011.4mb 83f 82f
3:50pm 9ft 12s 8s 16 20 mph 1011.4mb 83f 82f
2:50pm 9ft 13s 8s 16 18 mph 1011.6mb 83f 82f
1:50pm 8ft 11s 8s 16 18 mph 1012.1mb 83f 82f
12:50pm 8ft 14s 7s 16 18 mph 1012.6mb 83f 82f
11:50am 8ft 14s 8s 16 18 mph 1013.2mb 82f 82f
10:50am 8ft 13s 7s 16 18 mph 1013.6mb 82f 82f
9:50am 9ft 14s 8s 13 18 mph 1013.9mb 82f 82f
8:50am 8.5ft 13s 8s 13 18 mph 1013.5mb 82f 82f
7:50am 9.5ft 14s 7s 16 20 mph 1013.2mb 82f 81f
6:50am 9ft 14s 8s 16 18 mph 1012.8mb 82f 81f
5:50am 8ft 11s 7s 13 18 mph 1012.8mb 82f 81f
4:50am 8.5ft 15s 7s 16 20 mph 1012.8mb 82f 81f
3:50am 8ft 11s 7s 18 20 mph 1012.8mb 82f 81f
2:50am 8ft 14s 7s 18 20 mph 1013.3mb 82f 81f
1:50am 8ft 13s 7s 18 20 mph 1013.8mb 82f 81f